createdAt,value
2018-09-18T00:00:19.084Z,13.50
2018-09-18T00:02:48.584Z,13.40
2018-09-18T00:05:17.962Z,13.40
2018-09-18T00:07:47.192Z,13.30
2018-09-18T00:10:16.478Z,13.20
2018-09-18T00:12:45.737Z,13.20
2018-09-18T00:15:14.979Z,13.20
2018-09-18T00:17:44.308Z,13.20
2018-09-18T00:20:13.523Z,13.10
2018-09-18T00:22:42.797Z,13.10
2018-09-18T00:25:12.067Z,13.20
2018-09-18T00:27:41.340Z,13.20
2018-09-18T00:30:10.648Z,13.20
2018-09-18T00:32:39.919Z,13.20
2018-09-18T00:35:09.157Z,13.10
2018-09-18T00:37:38.426Z,13.10
2018-09-18T00:40:07.760Z,13.10
2018-09-18T00:42:36.983Z,13.00
2018-09-18T00:45:06.397Z,12.90
2018-09-18T00:47:35.776Z,12.90
2018-09-18T00:50:05.228Z,12.80
2018-09-18T00:52:34.637Z,12.70
2018-09-18T00:55:03.982Z,12.70
2018-09-18T00:57:33.213Z,12.60
2018-09-18T01:00:02.544Z,12.60
2018-09-18T01:02:31.820Z,12.60
2018-09-18T01:05:01.776Z,12.70
2018-09-18T01:07:31.061Z,12.60
2018-09-18T01:10:00.355Z,12.60
2018-09-18T01:12:29.596Z,12.50
2018-09-18T01:14:59.568Z,12.50
2018-09-18T01:17:28.856Z,12.50
2018-09-18T01:19:58.163Z,12.70
2018-09-18T01:22:27.391Z,12.60
2018-09-18T01:24:56.738Z,12.60
2018-09-18T01:27:26.504Z,12.50
2018-09-18T01:29:55.752Z,12.40
2018-09-18T01:32:25.063Z,12.40
2018-09-18T01:34:54.337Z,12.40
2018-09-18T01:37:24.364Z,12.40
2018-09-18T01:39:53.622Z,12.50
2018-09-18T01:42:22.932Z,12.40
2018-09-18T01:44:52.240Z,12.40
2018-09-18T01:47:21.528Z,12.50
2018-09-18T01:49:50.883Z,12.50
2018-09-18T01:52:20.388Z,12.40
2018-09-18T01:54:49.621Z,12.50
2018-09-18T01:57:18.890Z,12.60
2018-09-18T01:59:48.229Z,12.70
2018-09-18T02:02:17.512Z,12.80
2018-09-18T02:04:47.763Z,12.80
2018-09-18T02:07:16.975Z,12.80
2018-09-18T02:09:46.248Z,12.70
2018-09-18T02:12:15.510Z,12.80
2018-09-18T02:14:44.729Z,12.90
2018-09-18T02:17:13.984Z,13.00
2018-09-18T02:19:43.471Z,13.00
2018-09-18T02:22:12.712Z,13.00
2018-09-18T02:24:41.960Z,13.00
2018-09-18T02:27:11.279Z,13.10
2018-09-18T02:29:40.531Z,13.00
2018-09-18T02:32:09.964Z,13.00
2018-09-18T02:34:39.301Z,13.00
2018-09-18T02:37:08.615Z,13.00
2018-09-18T02:39:37.896Z,12.90
2018-09-18T02:42:07.155Z,12.90
2018-09-18T02:44:36.375Z,12.90
2018-09-18T02:47:07.149Z,12.90
2018-09-18T02:49:36.405Z,12.90
2018-09-18T02:52:05.718Z,12.90
2018-09-18T02:54:35.024Z,12.80
2018-09-18T02:57:04.402Z,12.80
2018-09-18T02:59:33.629Z,12.80
2018-09-18T03:02:02.865Z,12.90
2018-09-18T03:04:32.095Z,13.10
2018-09-18T03:07:01.320Z,13.00
2018-09-18T03:09:30.584Z,12.90
2018-09-18T03:11:59.781Z,12.90
2018-09-18T03:14:29.058Z,12.90
2018-09-18T03:16:58.523Z,12.80
2018-09-18T03:19:27.747Z,12.70
2018-09-18T03:21:56.968Z,12.70
2018-09-18T03:24:26.215Z,12.70
2018-09-18T03:26:55.510Z,12.70
2018-09-18T03:29:24.747Z,12.60
2018-09-18T03:31:54.140Z,12.70
2018-09-18T03:34:23.369Z,12.70
2018-09-18T03:36:52.613Z,12.80
2018-09-18T03:39:21.827Z,12.70
2018-09-18T03:41:51.127Z,12.70
2018-09-18T03:44:20.371Z,12.60
2018-09-18T03:46:50.787Z,12.50
2018-09-18T03:49:20.025Z,12.50
2018-09-18T03:51:49.310Z,12.50
2018-09-18T03:54:18.547Z,12.60
2018-09-18T03:56:47.770Z,12.50
2018-09-18T03:59:17.004Z,12.50
2018-09-18T04:01:46.248Z,12.40
2018-09-18T04:04:16.057Z,12.50
2018-09-18T04:06:45.358Z,12.50
2018-09-18T04:09:14.660Z,12.40
2018-09-18T04:11:43.969Z,12.40
2018-09-18T04:14:13.261Z,12.40
2018-09-18T04:16:42.504Z,12.40
2018-09-18T04:19:11.768Z,12.60
2018-09-18T04:21:41.981Z,12.40
2018-09-18T04:24:11.376Z,12.50
2018-09-18T04:26:41.501Z,12.50
2018-09-18T04:29:11.052Z,12.50
2018-09-18T04:31:41.236Z,12.50
2018-09-18T04:34:10.586Z,12.50
2018-09-18T04:36:39.856Z,12.50
2018-09-18T04:39:11.337Z,12.50
2018-09-18T04:41:40.763Z,12.60
2018-09-18T04:44:10.703Z,12.50
2018-09-18T04:46:40.004Z,12.50
2018-09-18T04:49:09.275Z,12.50
2018-09-18T04:51:38.515Z,12.40
2018-09-18T04:54:07.771Z,12.50
2018-09-18T04:56:37.116Z,12.50
2018-09-18T04:59:06.481Z,12.50
2018-09-18T05:01:36.309Z,12.50
2018-09-18T05:04:05.619Z,12.40
2018-09-18T05:06:34.985Z,12.40
2018-09-18T05:09:06.316Z,12.30
2018-09-18T05:11:35.546Z,12.40
2018-09-18T05:14:04.906Z,12.40
2018-09-18T05:16:35.398Z,12.50
2018-09-18T05:19:05.137Z,12.40
2018-09-18T05:21:35.096Z,12.40
2018-09-18T05:24:04.340Z,12.40
2018-09-18T05:26:33.605Z,12.40
2018-09-18T05:29:03.685Z,12.40
2018-09-18T05:31:32.920Z,12.40
2018-09-18T05:34:02.237Z,12.50
2018-09-18T05:36:31.473Z,12.50
2018-09-18T05:39:00.806Z,12.70
2018-09-18T05:41:30.087Z,12.60
2018-09-18T05:43:59.936Z,12.60
2018-09-18T05:46:29.175Z,12.70
2018-09-18T05:48:58.465Z,12.80
2018-09-18T05:51:29.063Z,12.90
2018-09-18T05:53:58.348Z,13.10
2018-09-18T05:56:27.625Z,13.10
2018-09-18T05:58:56.865Z,13.20
2018-09-18T06:01:26.100Z,13.30
2018-09-18T06:03:55.381Z,13.30
2018-09-18T06:06:24.676Z,13.40
2018-09-18T06:08:53.964Z,13.50
2018-09-18T06:11:23.216Z,13.60
2018-09-18T06:13:52.575Z,13.70
2018-09-18T06:16:21.844Z,13.70
2018-09-18T06:18:51.197Z,13.80
2018-09-18T06:21:20.397Z,13.90
2018-09-18T06:23:49.652Z,14.00
2018-09-18T06:26:18.908Z,14.10
2018-09-18T06:28:48.130Z,14.20
2018-09-18T06:31:17.456Z,14.30
2018-09-18T06:33:46.735Z,14.40
2018-09-18T06:36:16.112Z,14.50
2018-09-18T06:38:45.788Z,14.60
2018-09-18T06:41:15.068Z,14.70
2018-09-18T06:43:44.318Z,14.80
2018-09-18T06:46:13.562Z,14.90
2018-09-18T06:48:42.829Z,15.10
2018-09-18T06:51:12.066Z,15.20
2018-09-18T06:53:41.377Z,15.20
2018-09-18T06:56:10.866Z,15.30
2018-09-18T06:58:40.163Z,15.40
2018-09-18T07:01:09.411Z,15.40
2018-09-18T07:03:38.783Z,15.50
2018-09-18T07:06:08.383Z,15.60
2018-09-18T07:08:37.593Z,15.70
2018-09-18T07:11:07.256Z,15.80
2018-09-18T07:13:37.057Z,16.00
2018-09-18T07:16:06.904Z,16.00
2018-09-18T07:18:36.134Z,16.10
2018-09-18T07:21:05.496Z,16.20
2018-09-18T07:23:34.851Z,16.30
2018-09-18T07:26:04.196Z,16.50
2018-09-18T07:28:33.436Z,16.60
2018-09-18T07:31:03.427Z,16.80
2018-09-18T07:33:32.761Z,16.80
2018-09-18T07:36:02.009Z,17.00
2018-09-18T07:38:31.251Z,17.10
2018-09-18T07:41:01.262Z,17.20
2018-09-18T07:43:30.444Z,17.30
2018-09-18T07:45:59.645Z,17.50
2018-09-18T07:48:34.289Z,17.60
2018-09-18T07:51:03.868Z,17.70
2018-09-18T07:53:33.188Z,17.80
2018-09-18T07:56:02.951Z,18.00
2018-09-18T07:58:32.231Z,18.10
2018-09-18T08:01:01.604Z,18.20
2018-09-18T08:03:30.845Z,18.40
2018-09-18T08:06:00.137Z,18.50
2018-09-18T08:08:29.385Z,18.60
2018-09-18T08:10:58.730Z,18.70
2018-09-18T08:13:27.892Z,18.90
2018-09-18T08:15:57.153Z,19.00
2018-09-18T08:18:26.375Z,19.20
2018-09-18T08:20:55.599Z,19.30
2018-09-18T08:23:24.816Z,19.40
2018-09-18T08:25:54.069Z,19.60
2018-09-18T08:28:23.325Z,19.70
2018-09-18T08:30:52.685Z,19.90
2018-09-18T08:33:21.904Z,20.00
2018-09-18T08:35:51.186Z,20.10
2018-09-18T08:38:20.489Z,20.20
2018-09-18T08:40:49.792Z,20.40
2018-09-18T08:43:19.024Z,20.50
2018-09-18T08:45:48.411Z,20.60
2018-09-18T08:48:17.718Z,20.80
2018-09-18T08:50:47.081Z,20.90
2018-09-18T08:53:16.311Z,21.00
2018-09-18T08:55:45.546Z,21.20
2018-09-18T08:58:14.823Z,21.40
2018-09-18T09:00:44.132Z,21.50
2018-09-18T09:03:13.344Z,21.60
2018-09-18T09:05:43.075Z,21.70
2018-09-18T09:08:12.478Z,21.90
2018-09-18T09:10:41.759Z,22.10
2018-09-18T09:13:10.998Z,22.30
2018-09-18T09:15:40.344Z,22.40
2018-09-18T09:18:09.700Z,22.60
2018-09-18T09:20:38.828Z,22.70
2018-09-18T09:23:08.283Z,22.80
2018-09-18T09:25:37.331Z,23.10
2018-09-18T09:28:06.862Z,23.30
2018-09-18T09:30:36.122Z,23.50
2018-09-18T09:33:05.421Z,23.60
2018-09-18T09:35:35.100Z,23.70
2018-09-18T09:38:04.398Z,23.80
2018-09-18T09:40:34.461Z,23.90
2018-09-18T09:43:03.646Z,23.90
2018-09-18T09:45:32.936Z,24.10
2018-09-18T09:48:02.148Z,24.30
2018-09-18T09:50:31.429Z,24.10
2018-09-18T09:53:00.683Z,24.30
2018-09-18T09:55:29.972Z,24.30
2018-09-18T09:57:59.248Z,24.30
2018-09-18T10:00:33.877Z,24.30
2018-09-18T10:03:03.146Z,24.40
2018-09-18T10:05:32.537Z,24.50
2018-09-18T10:08:01.822Z,24.50
2018-09-18T10:10:31.142Z,24.60
2018-09-18T10:13:00.416Z,24.70
2018-09-18T10:15:29.654Z,24.80
2018-09-18T10:17:59.006Z,24.80
2018-09-18T10:20:28.840Z,25.10
2018-09-18T10:22:58.084Z,25.00
2018-09-18T10:25:27.366Z,25.20
2018-09-18T10:27:56.610Z,25.20
2018-09-18T10:30:25.890Z,25.10
2018-09-18T10:32:55.159Z,25.10
2018-09-18T10:35:24.347Z,25.30
2018-09-18T10:37:53.681Z,25.20
2018-09-18T10:40:23.100Z,25.50
2018-09-18T10:42:52.440Z,25.50
2018-09-18T10:45:21.700Z,25.80
2018-09-18T10:47:50.932Z,25.80
2018-09-18T10:50:20.281Z,25.90
2018-09-18T10:52:49.561Z,25.90
2018-09-18T10:55:18.917Z,25.70
2018-09-18T10:57:48.491Z,25.70
2018-09-18T11:00:17.789Z,25.90
2018-09-18T11:02:47.020Z,25.80
2018-09-18T11:05:16.252Z,25.80
2018-09-18T11:07:45.536Z,26.00
2018-09-18T11:10:14.756Z,26.00
2018-09-18T11:12:44.081Z,26.00
2018-09-18T11:15:13.300Z,26.00
2018-09-18T11:17:42.617Z,26.00
2018-09-18T11:20:11.839Z,26.20
2018-09-18T11:22:41.128Z,26.10
2018-09-18T11:25:10.436Z,26.20
2018-09-18T11:27:39.692Z,26.40
2018-09-18T11:30:09.125Z,26.70
2018-09-18T11:32:38.388Z,26.60
2018-09-18T11:35:07.656Z,26.40
2018-09-18T11:37:36.898Z,26.60
2018-09-18T11:40:06.730Z,26.70
2018-09-18T11:42:36.003Z,26.60
2018-09-18T11:45:05.406Z,26.80
2018-09-18T11:47:34.657Z,26.90
2018-09-18T11:50:03.941Z,26.80
2018-09-18T11:52:33.185Z,26.80
2018-09-18T11:55:02.451Z,26.80
2018-09-18T11:57:31.756Z,27.00
2018-09-18T12:00:01.051Z,27.20
2018-09-18T12:02:30.276Z,27.30
2018-09-18T12:04:59.704Z,27.00
2018-09-18T12:07:29.140Z,27.10
2018-09-18T12:09:58.405Z,27.20
2018-09-18T12:12:27.673Z,27.30
2018-09-18T12:14:57.568Z,27.10
2018-09-18T12:17:26.851Z,27.00
2018-09-18T12:19:56.095Z,27.10
2018-09-18T12:22:25.398Z,27.10
2018-09-18T12:24:54.634Z,26.90
2018-09-18T12:27:23.972Z,26.90
2018-09-18T12:29:53.314Z,27.10
2018-09-18T12:32:22.548Z,27.40
2018-09-18T12:34:51.792Z,27.50
2018-09-18T12:37:21.004Z,27.50
2018-09-18T12:39:50.253Z,27.40
2018-09-18T12:42:19.591Z,27.00
2018-09-18T12:44:48.715Z,26.70
2018-09-18T12:47:17.944Z,26.50
2018-09-18T12:49:47.442Z,26.40
2018-09-18T12:52:17.538Z,26.60
2018-09-18T12:54:46.811Z,26.70
2018-09-18T12:57:16.310Z,26.20
2018-09-18T12:59:45.429Z,26.20
2018-09-18T13:02:14.902Z,26.60
2018-09-18T13:04:44.302Z,26.40
2018-09-18T13:07:13.622Z,26.10
2018-09-18T13:09:42.913Z,26.20
2018-09-18T13:12:12.207Z,26.00
2018-09-18T13:14:41.449Z,26.00
2018-09-18T13:17:11.571Z,26.30
2018-09-18T13:19:40.857Z,26.40
2018-09-18T13:22:10.708Z,26.20
2018-09-18T13:24:40.046Z,26.20
2018-09-18T13:27:09.891Z,26.30
2018-09-18T13:29:39.927Z,26.20
2018-09-18T13:32:09.226Z,26.30
2018-09-18T13:34:38.912Z,26.40
2018-09-18T13:37:08.179Z,26.20
2018-09-18T13:39:37.517Z,26.10
2018-09-18T13:42:06.781Z,25.90
2018-09-18T13:44:36.018Z,25.90
2018-09-18T13:47:05.456Z,25.80
2018-09-18T13:49:34.706Z,25.80
2018-09-18T13:52:04.660Z,26.20
2018-09-18T13:54:33.975Z,26.20
2018-09-18T13:57:03.303Z,26.20
2018-09-18T13:59:32.544Z,26.20
2018-09-18T14:02:01.849Z,26.20
2018-09-18T14:04:31.673Z,26.20
2018-09-18T14:07:00.881Z,26.30
2018-09-18T14:09:30.207Z,26.00
2018-09-18T14:11:59.406Z,25.90
2018-09-18T14:14:28.658Z,26.10
2018-09-18T14:16:57.987Z,26.00
2018-09-18T14:19:27.243Z,25.90
2018-09-18T14:21:56.516Z,25.60
2018-09-18T14:24:25.806Z,25.70
2018-09-18T14:26:55.310Z,26.00
2018-09-18T14:29:24.562Z,26.20
2018-09-18T14:31:53.865Z,26.10
2018-09-18T14:34:23.199Z,25.90
2018-09-18T14:36:52.515Z,25.70
2018-09-18T14:39:21.768Z,25.70
2018-09-18T14:41:50.947Z,25.70
2018-09-18T14:44:20.240Z,25.60
2018-09-18T14:46:49.462Z,25.50
2018-09-18T14:49:19.454Z,25.60
2018-09-18T14:51:48.742Z,25.50
2018-09-18T14:54:18.014Z,25.80
2018-09-18T14:56:47.290Z,25.80
2018-09-18T14:59:16.493Z,25.30
2018-09-18T15:01:45.729Z,25.60
2018-09-18T15:04:15.006Z,25.30
2018-09-18T15:06:45.184Z,25.20
2018-09-18T15:09:14.447Z,25.10
2018-09-18T15:11:43.825Z,25.30
2018-09-18T15:14:13.094Z,25.20
2018-09-18T15:16:42.353Z,25.30
2018-09-18T15:19:11.618Z,25.40
2018-09-18T15:21:41.242Z,25.30
2018-09-18T15:24:10.292Z,25.10
2018-09-18T15:26:39.701Z,25.20
2018-09-18T15:29:09.536Z,25.10
2018-09-18T15:31:38.908Z,25.10
2018-09-18T15:34:08.570Z,25.30
2018-09-18T15:36:37.760Z,25.10
2018-09-18T15:39:08.044Z,25.00
2018-09-18T15:41:38.250Z,24.80
2018-09-18T15:44:07.600Z,25.00
2018-09-18T15:46:37.292Z,25.00
2018-09-18T15:49:06.603Z,24.60
2018-09-18T15:51:36.635Z,24.50
2018-09-18T15:54:06.233Z,24.30
2018-09-18T15:56:35.473Z,24.30
2018-09-18T15:59:04.705Z,24.50
2018-09-18T16:01:34.080Z,24.50
2018-09-18T16:04:03.212Z,24.40
2018-09-18T16:06:32.565Z,24.20
2018-09-18T16:09:04.756Z,24.10
2018-09-18T16:11:34.668Z,24.10
2018-09-18T16:14:03.963Z,24.00
2018-09-18T16:16:33.233Z,24.00
2018-09-18T16:19:02.567Z,23.80
2018-09-18T16:21:31.904Z,23.80
2018-09-18T16:24:02.224Z,23.70
2018-09-18T16:26:31.860Z,23.60
2018-09-18T16:29:01.114Z,23.20
2018-09-18T16:31:30.424Z,23.10
2018-09-18T16:33:59.717Z,22.80
2018-09-18T16:36:28.992Z,22.40
2018-09-18T16:38:58.352Z,22.10
2018-09-18T16:41:27.834Z,22.00
2018-09-18T16:43:57.183Z,22.00
2018-09-18T16:46:26.443Z,21.80
2018-09-18T16:48:55.859Z,21.80
2018-09-18T16:51:25.073Z,21.60
2018-09-18T16:53:54.299Z,21.50
2018-09-18T16:56:23.608Z,21.30
2018-09-18T16:58:52.887Z,21.10
2018-09-18T17:01:22.162Z,20.90
2018-09-18T17:03:51.411Z,20.80
2018-09-18T17:06:20.662Z,20.70
2018-09-18T17:08:49.975Z,20.60
2018-09-18T17:11:19.218Z,20.50
2018-09-18T17:13:48.470Z,20.40
2018-09-18T17:16:17.698Z,20.30
2018-09-18T17:18:46.980Z,20.30
2018-09-18T17:21:16.993Z,20.10
2018-09-18T17:23:46.369Z,20.10
2018-09-18T17:26:15.636Z,20.00
2018-09-18T17:28:45.168Z,19.90
2018-09-18T17:31:14.262Z,19.80
2018-09-18T17:33:43.556Z,19.80
2018-09-18T17:36:12.906Z,19.80
2018-09-18T17:38:42.194Z,19.70
2018-09-18T17:41:12.125Z,19.60
2018-09-18T17:43:41.589Z,19.60
2018-09-18T17:46:10.908Z,19.50
2018-09-18T17:48:40.148Z,19.40
2018-09-18T17:51:09.404Z,19.30
2018-09-18T17:53:38.755Z,19.30
2018-09-18T17:56:08.008Z,19.20
2018-09-18T17:58:37.234Z,19.20
2018-09-18T18:01:06.535Z,19.10
2018-09-18T18:03:35.796Z,19.00
2018-09-18T18:06:05.077Z,18.90
2018-09-18T18:08:34.368Z,18.90
2018-09-18T18:11:03.736Z,18.90
2018-09-18T18:13:33.179Z,18.90
2018-09-18T18:16:02.421Z,18.80
2018-09-18T18:18:31.756Z,18.70
2018-09-18T18:21:01.026Z,18.80
2018-09-18T18:23:30.372Z,18.80
2018-09-18T18:25:59.562Z,18.80
2018-09-18T18:28:28.799Z,18.70
2018-09-18T18:30:58.007Z,18.60
2018-09-18T18:33:27.493Z,18.60
2018-09-18T18:35:56.699Z,18.60
2018-09-18T18:38:26.053Z,18.50
2018-09-18T18:40:56.038Z,18.50
2018-09-18T18:43:25.224Z,18.50
2018-09-18T18:45:55.408Z,18.50
2018-09-18T18:48:24.730Z,18.50
2018-09-18T18:50:53.963Z,18.30
2018-09-18T18:53:23.189Z,18.20
2018-09-18T18:55:52.498Z,18.10
2018-09-18T18:58:21.749Z,18.10
2018-09-18T19:00:51.099Z,18.00
2018-09-18T19:03:20.369Z,18.00
2018-09-18T19:05:49.706Z,18.00
2018-09-18T19:08:18.974Z,18.00
2018-09-18T19:10:48.321Z,18.00
2018-09-18T19:13:17.563Z,17.90
2018-09-18T19:15:46.833Z,17.90
2018-09-18T19:18:16.100Z,17.80
2018-09-18T19:20:45.326Z,17.80
2018-09-18T19:23:14.680Z,17.70
2018-09-18T19:25:43.958Z,17.70
2018-09-18T19:28:13.166Z,17.60
2018-09-18T19:30:42.435Z,17.60
2018-09-18T19:33:11.753Z,17.50
2018-09-18T19:35:42.105Z,17.50
2018-09-18T19:38:11.447Z,17.40
2018-09-18T19:40:40.749Z,17.30
2018-09-18T19:43:10.045Z,17.20
2018-09-18T19:45:39.268Z,17.20
2018-09-18T19:48:08.636Z,17.20
2018-09-18T19:50:37.934Z,17.10
2018-09-18T19:53:07.195Z,17.10
2018-09-18T19:55:36.478Z,17.10
2018-09-18T19:58:05.708Z,17.10
2018-09-18T20:00:35.230Z,17.00
2018-09-18T20:03:04.455Z,17.00
2018-09-18T20:05:33.735Z,16.90
2018-09-18T20:08:03.119Z,16.90
2018-09-18T20:10:32.412Z,16.90
2018-09-18T20:13:01.842Z,16.90
2018-09-18T20:15:31.134Z,16.80
2018-09-18T20:18:00.588Z,16.80
2018-09-18T20:20:29.853Z,16.80
2018-09-18T20:22:59.104Z,16.80
2018-09-18T20:25:28.454Z,16.70
2018-09-18T20:27:57.678Z,16.70
2018-09-18T20:30:27.027Z,16.60
2018-09-18T20:32:56.308Z,16.60
2018-09-18T20:35:25.589Z,16.60
2018-09-18T20:37:54.842Z,16.50
2018-09-18T20:40:24.114Z,16.50
2018-09-18T20:42:53.467Z,16.50
2018-09-18T20:45:22.727Z,16.40
2018-09-18T20:47:51.979Z,16.40
2018-09-18T20:50:23.240Z,16.30
2018-09-18T20:52:54.521Z,16.30
2018-09-18T20:55:23.780Z,16.30
2018-09-18T20:57:53.036Z,16.20
2018-09-18T21:00:22.299Z,16.20
2018-09-18T21:02:51.522Z,16.20
2018-09-18T21:05:20.779Z,16.10
2018-09-18T21:07:50.085Z,16.10
2018-09-18T21:10:19.345Z,16.10
2018-09-18T21:12:48.600Z,16.10
2018-09-18T21:15:18.045Z,16.00
2018-09-18T21:17:47.340Z,16.10
2018-09-18T21:20:16.683Z,16.00
2018-09-18T21:22:45.925Z,16.00
2018-09-18T21:25:18.482Z,16.00
2018-09-18T21:27:48.393Z,16.00
2018-09-18T21:30:18.533Z,16.00
2018-09-18T21:32:47.773Z,16.00
2018-09-18T21:35:17.052Z,15.90
2018-09-18T21:37:46.333Z,15.90
2018-09-18T21:40:15.595Z,15.90
2018-09-18T21:42:44.836Z,15.90
2018-09-18T21:45:14.169Z,15.90
2018-09-18T21:47:43.411Z,15.90
2018-09-18T21:50:12.671Z,15.90
2018-09-18T21:52:42.057Z,15.80
2018-09-18T21:55:11.289Z,15.80
2018-09-18T21:57:40.524Z,15.80
2018-09-18T22:00:09.912Z,15.80
2018-09-18T22:02:39.264Z,15.80
2018-09-18T22:05:09.265Z,15.80
2018-09-18T22:07:38.506Z,15.70
2018-09-18T22:10:07.795Z,15.80
2018-09-18T22:12:37.177Z,15.70
2018-09-18T22:15:06.355Z,15.70
2018-09-18T22:17:35.712Z,15.80
2018-09-18T22:20:05.843Z,15.80
2018-09-18T22:22:35.079Z,15.80
2018-09-18T22:25:04.445Z,15.80
2018-09-18T22:27:35.321Z,15.80
2018-09-18T22:30:04.720Z,15.80
2018-09-18T22:32:33.967Z,15.80
2018-09-18T22:35:03.255Z,15.80
2018-09-18T22:37:32.522Z,15.80
2018-09-18T22:40:01.756Z,15.80
2018-09-18T22:42:31.060Z,15.80
2018-09-18T22:45:00.235Z,15.80
2018-09-18T22:47:30.411Z,15.70
2018-09-18T22:50:00.473Z,15.70
2018-09-18T22:52:29.721Z,15.70
2018-09-18T22:54:58.939Z,15.70
2018-09-18T22:57:28.286Z,15.70
2018-09-18T22:59:57.415Z,15.60
2018-09-18T23:02:26.677Z,15.60
2018-09-18T23:04:55.911Z,15.60
2018-09-18T23:07:25.897Z,15.60
2018-09-18T23:09:55.180Z,15.60
2018-09-18T23:12:24.470Z,15.70
2018-09-18T23:14:53.739Z,15.70
2018-09-18T23:17:22.965Z,15.70
2018-09-18T23:19:52.154Z,15.70
2018-09-18T23:22:21.409Z,15.70
2018-09-18T23:24:50.633Z,15.70
2018-09-18T23:27:19.861Z,15.70
2018-09-18T23:29:49.099Z,15.70
2018-09-18T23:32:18.344Z,15.60
2018-09-18T23:34:48.662Z,15.60
2018-09-18T23:37:17.899Z,15.60
2018-09-18T23:39:47.130Z,15.50
2018-09-18T23:42:16.460Z,15.50
2018-09-18T23:44:45.589Z,15.50
2018-09-18T23:47:14.848Z,15.50
2018-09-18T23:49:44.081Z,15.50
2018-09-18T23:52:13.322Z,15.50
2018-09-18T23:54:42.571Z,15.50
2018-09-18T23:57:11.799Z,15.60
2018-09-18T23:59:41.023Z,15.60
